Dundee, Kentucky
Current Conditions -  °F | °C
As of 6:56 PM on Thursday 27 Nov 2014 (Local Time) from KOWB Reporting Station
Overcast Overcast  
Wind Chill: 23°   Ceiling: 3800
Heat Index: 29°   Visibility: 10mi
Dew Point: 22°   Wind: 6mph
Humidity: 75%   Direction: 310°NW
Pressure: 30.48"   Gusts: NA
Location:  37.56°N, 86.77°W
Report Text: KOWB 280056Z 31005KT 10SM OVC038 M02/M06 A3048 RMK AO2 T10161055 UPB29E52 P0000 SLP327
Loading
Personal Weather Stations






























Interactive Weather Map New forecast layout! Learn more

10-Day Weather Forecast

Advertisements
Track Severe Weather on mobile